sensor_id;sensor_type;location;lat;lon;timestamp;temperature;humidity
15916;DHT22;8057;47.830;-3.870;2023-09-07T00:02:33;21.60;99.90
15916;DHT22;8057;47.830;-3.870;2023-09-07T00:06:51;21.60;99.90
15916;DHT22;8057;47.830;-3.870;2023-09-07T00:11:09;21.50;99.90
15916;DHT22;8057;47.830;-3.870;2023-09-07T00:15:24;21.50;99.90
15916;DHT22;8057;47.830;-3.870;2023-09-07T00:19:42;21.50;99.90
15916;DHT22;8057;47.830;-3.870;2023-09-07T00:23:58;21.50;99.90
15916;DHT22;8057;47.830;-3.870;2023-09-07T00:28:19;21.40;99.90
15916;DHT22;8057;47.830;-3.870;2023-09-07T00:32:42;21.40;99.90
15916;DHT22;8057;47.830;-3.870;2023-09-07T00:36:59;21.40;99.90
15916;DHT22;8057;47.830;-3.870;2023-09-07T00:41:14;21.40;99.90
15916;DHT22;8057;47.830;-3.870;2023-09-07T00:45:30;21.30;99.90
15916;DHT22;8057;47.830;-3.870;2023-09-07T00:49:45;21.20;99.90
15916;DHT22;8057;47.830;-3.870;2023-09-07T00:54:03;21.20;99.90
15916;DHT22;8057;47.830;-3.870;2023-09-07T00:58:19;21.20;99.90
15916;DHT22;8057;47.830;-3.870;2023-09-07T01:02:36;21.20;99.90
15916;DHT22;8057;47.830;-3.870;2023-09-07T01:06:56;21.10;99.90
15916;DHT22;8057;47.830;-3.870;2023-09-07T01:11:20;21.10;99.90
15916;DHT22;8057;47.830;-3.870;2023-09-07T01:15:36;21.10;99.90
15916;DHT22;8057;47.830;-3.870;2023-09-07T01:19:53;21.00;99.90
15916;DHT22;8057;47.830;-3.870;2023-09-07T01:24:11;21.00;99.90
15916;DHT22;8057;47.830;-3.870;2023-09-07T01:28:26;20.90;99.90
15916;DHT22;8057;47.830;-3.870;2023-09-07T01:32:42;20.90;99.90
15916;DHT22;8057;47.830;-3.870;2023-09-07T01:36:56;20.90;99.90
15916;DHT22;8057;47.830;-3.870;2023-09-07T01:41:13;20.90;99.90
15916;DHT22;8057;47.830;-3.870;2023-09-07T01:45:33;20.80;99.90
15916;DHT22;8057;47.830;-3.870;2023-09-07T01:49:47;20.70;99.90
15916;DHT22;8057;47.830;-3.870;2023-09-07T01:54:05;20.60;99.90
15916;DHT22;8057;47.830;-3.870;2023-09-07T01:58:21;20.60;99.90
15916;DHT22;8057;47.830;-3.870;2023-09-07T02:02:37;20.70;99.90
15916;DHT22;8057;47.830;-3.870;2023-09-07T02:06:57;20.70;99.90
15916;DHT22;8057;47.830;-3.870;2023-09-07T02:11:12;20.70;99.90
15916;DHT22;8057;47.830;-3.870;2023-09-07T02:15:32;20.70;99.90
15916;DHT22;8057;47.830;-3.870;2023-09-07T02:19:48;20.70;99.90
15916;DHT22;8057;47.830;-3.870;2023-09-07T02:24:06;20.80;99.90
15916;DHT22;8057;47.830;-3.870;2023-09-07T02:28:18;20.80;99.90
15916;DHT22;8057;47.830;-3.870;2023-09-07T02:32:34;20.80;99.90
15916;DHT22;8057;47.830;-3.870;2023-09-07T02:36:50;20.70;99.90
15916;DHT22;8057;47.830;-3.870;2023-09-07T02:41:05;20.70;99.90
15916;DHT22;8057;47.830;-3.870;2023-09-07T02:45:20;20.70;99.90
15916;DHT22;8057;47.830;-3.870;2023-09-07T02:49:33;20.80;99.90
15916;DHT22;8057;47.830;-3.870;2023-09-07T02:53:46;20.80;99.90
15916;DHT22;8057;47.830;-3.870;2023-09-07T02:58:05;20.70;99.90
15916;DHT22;8057;47.830;-3.870;2023-09-07T03:02:24;20.70;99.90
15916;DHT22;8057;47.830;-3.870;2023-09-07T03:06:42;20.70;99.90
15916;DHT22;8057;47.830;-3.870;2023-09-07T03:10:56;20.60;99.90
15916;DHT22;8057;47.830;-3.870;2023-09-07T03:15:11;20.60;99.90
15916;DHT22;8057;47.830;-3.870;2023-09-07T03:19:23;20.60;99.90
15916;DHT22;8057;47.830;-3.870;2023-09-07T03:23:40;20.50;99.90
15916;DHT22;8057;47.830;-3.870;2023-09-07T03:27:54;20.50;99.90
15916;DHT22;8057;47.830;-3.870;2023-09-07T03:32:10;20.50;99.90
15916;DHT22;8057;47.830;-3.870;2023-09-07T03:36:23;20.40;99.90
15916;DHT22;8057;47.830;-3.870;2023-09-07T03:40:35;20.40;99.90
15916;DHT22;8057;47.830;-3.870;2023-09-07T03:44:44;20.50;99.90
15916;DHT22;8057;47.830;-3.870;2023-09-07T03:48:53;20.50;99.90
15916;DHT22;8057;47.830;-3.870;2023-09-07T03:53:03;20.60;99.90
15916;DHT22;8057;47.830;-3.870;2023-09-07T03:57:13;20.60;99.90
15916;DHT22;8057;47.830;-3.870;2023-09-07T04:01:23;20.60;99.90
15916;DHT22;8057;47.830;-3.870;2023-09-07T04:05:33;20.60;99.90
15916;DHT22;8057;47.830;-3.870;2023-09-07T04:09:42;20.60;99.90
15916;DHT22;8057;47.830;-3.870;2023-09-07T04:13:52;20.60;99.90
15916;DHT22;8057;47.830;-3.870;2023-09-07T04:18:01;20.60;99.90
15916;DHT22;8057;47.830;-3.870;2023-09-07T04:22:11;20.60;99.90
15916;DHT22;8057;47.830;-3.870;2023-09-07T04:26:20;20.60;99.90
15916;DHT22;8057;47.830;-3.870;2023-09-07T04:30:30;20.60;99.90
15916;DHT22;8057;47.830;-3.870;2023-09-07T04:34:39;20.60;99.90
15916;DHT22;8057;47.830;-3.870;2023-09-07T04:38:49;20.60;99.90
15916;DHT22;8057;47.830;-3.870;2023-09-07T04:42:58;20.70;99.90
15916;DHT22;8057;47.830;-3.870;2023-09-07T04:47:08;20.70;99.90
15916;DHT22;8057;47.830;-3.870;2023-09-07T04:51:17;20.70;99.90
15916;DHT22;8057;47.830;-3.870;2023-09-07T04:55:28;20.80;99.90
15916;DHT22;8057;47.830;-3.870;2023-09-07T04:59:37;20.80;99.90
15916;DHT22;8057;47.830;-3.870;2023-09-07T05:03:47;20.80;99.90
15916;DHT22;8057;47.830;-3.870;2023-09-07T05:08:00;20.80;99.90
15916;DHT22;8057;47.830;-3.870;2023-09-07T05:12:22;20.80;99.90
15916;DHT22;8057;47.830;-3.870;2023-09-07T05:16:36;20.70;99.90
15916;DHT22;8057;47.830;-3.870;2023-09-07T05:20:51;20.60;99.90
15916;DHT22;8057;47.830;-3.870;2023-09-07T05:25:08;20.60;99.90
15916;DHT22;8057;47.830;-3.870;2023-09-07T05:29:22;20.60;99.90
15916;DHT22;8057;47.830;-3.870;2023-09-07T05:33:36;20.60;99.90
15916;DHT22;8057;47.830;-3.870;2023-09-07T05:37:50;20.70;99.90
15916;DHT22;8057;47.830;-3.870;2023-09-07T05:42:00;20.80;99.90
15916;DHT22;8057;47.830;-3.870;2023-09-07T05:46:09;20.80;99.90
15916;DHT22;8057;47.830;-3.870;2023-09-07T05:50:18;20.80;99.90
15916;DHT22;8057;47.830;-3.870;2023-09-07T05:54:29;20.80;99.90
15916;DHT22;8057;47.830;-3.870;2023-09-07T05:58:38;20.80;99.90
15916;DHT22;8057;47.830;-3.870;2023-09-07T06:02:48;20.90;99.90
15916;DHT22;8057;47.830;-3.870;2023-09-07T06:06:57;20.90;99.90
15916;DHT22;8057;47.830;-3.870;2023-09-07T06:11:12;21.00;99.90
15916;DHT22;8057;47.830;-3.870;2023-09-07T06:15:28;20.90;99.90
15916;DHT22;8057;47.830;-3.870;2023-09-07T06:19:44;20.90;99.90
15916;DHT22;8057;47.830;-3.870;2023-09-07T06:24:03;21.00;99.90
15916;DHT22;8057;47.830;-3.870;2023-09-07T06:28:21;21.00;99.90
15916;DHT22;8057;47.830;-3.870;2023-09-07T06:32:36;21.00;99.90
15916;DHT22;8057;47.830;-3.870;2023-09-07T06:36:51;21.00;99.90
15916;DHT22;8057;47.830;-3.870;2023-09-07T06:41:04;21.20;99.90
15916;DHT22;8057;47.830;-3.870;2023-09-07T06:45:24;21.30;99.90
15916;DHT22;8057;47.830;-3.870;2023-09-07T06:49:39;21.30;99.90
15916;DHT22;8057;47.830;-3.870;2023-09-07T06:53:53;21.40;99.90
15916;DHT22;8057;47.830;-3.870;2023-09-07T06:58:06;21.50;99.90
15916;DHT22;8057;47.830;-3.870;2023-09-07T07:02:20;21.50;99.90
15916;DHT22;8057;47.830;-3.870;2023-09-07T07:06:33;21.50;99.90
15916;DHT22;8057;47.830;-3.870;2023-09-07T07:10:43;21.60;99.90
15916;DHT22;8057;47.830;-3.870;2023-09-07T07:14:54;21.60;99.90
15916;DHT22;8057;47.830;-3.870;2023-09-07T07:19:13;21.50;99.90
15916;DHT22;8057;47.830;-3.870;2023-09-07T07:23:36;21.50;99.90
15916;DHT22;8057;47.830;-3.870;2023-09-07T07:27:51;21.50;99.90
15916;DHT22;8057;47.830;-3.870;2023-09-07T07:32:07;21.60;99.90
15916;DHT22;8057;47.830;-3.870;2023-09-07T07:36:24;21.60;99.90
15916;DHT22;8057;47.830;-3.870;2023-09-07T07:40:41;21.80;99.90
15916;DHT22;8057;47.830;-3.870;2023-09-07T07:44:59;21.80;99.90
15916;DHT22;8057;47.830;-3.870;2023-09-07T07:49:12;21.90;99.90
15916;DHT22;8057;47.830;-3.870;2023-09-07T07:53:27;22.00;99.90
15916;DHT22;8057;47.830;-3.870;2023-09-07T07:57:46;22.00;99.90
15916;DHT22;8057;47.830;-3.870;2023-09-07T08:02:02;21.90;99.90
15916;DHT22;8057;47.830;-3.870;2023-09-07T08:06:17;21.90;99.90
15916;DHT22;8057;47.830;-3.870;2023-09-07T08:10:34;22.10;99.90
15916;DHT22;8057;47.830;-3.870;2023-09-07T08:14:48;22.20;99.90
15916;DHT22;8057;47.830;-3.870;2023-09-07T08:19:03;22.40;99.90
15916;DHT22;8057;47.830;-3.870;2023-09-07T08:23:28;22.70;99.90
15916;DHT22;8057;47.830;-3.870;2023-09-07T08:27:50;22.90;99.90
15916;DHT22;8057;47.830;-3.870;2023-09-07T08:32:05;22.90;99.90
15916;DHT22;8057;47.830;-3.870;2023-09-07T08:36:23;23.00;99.90
15916;DHT22;8057;47.830;-3.870;2023-09-07T08:40:38;23.20;99.90
15916;DHT22;8057;47.830;-3.870;2023-09-07T08:44:53;23.20;99.90
15916;DHT22;8057;47.830;-3.870;2023-09-07T08:49:06;23.30;99.90
15916;DHT22;8057;47.830;-3.870;2023-09-07T08:53:18;23.20;99.90
15916;DHT22;8057;47.830;-3.870;2023-09-07T08:57:30;23.20;99.90
15916;DHT22;8057;47.830;-3.870;2023-09-07T09:01:41;23.30;99.90
15916;DHT22;8057;47.830;-3.870;2023-09-07T09:05:51;23.40;99.90
15916;DHT22;8057;47.830;-3.870;2023-09-07T09:10:05;23.40;99.90
15916;DHT22;8057;47.830;-3.870;2023-09-07T09:14:17;23.50;99.90
15916;DHT22;8057;47.830;-3.870;2023-09-07T09:18:28;23.50;99.90
15916;DHT22;8057;47.830;-3.870;2023-09-07T09:22:38;23.60;99.90
15916;DHT22;8057;47.830;-3.870;2023-09-07T09:26:47;23.70;99.90
15916;DHT22;8057;47.830;-3.870;2023-09-07T09:30:57;23.80;99.90
15916;DHT22;8057;47.830;-3.870;2023-09-07T09:35:08;23.90;99.90
15916;DHT22;8057;47.830;-3.870;2023-09-07T09:39:24;24.00;99.90
15916;DHT22;8057;47.830;-3.870;2023-09-07T09:43:33;24.10;99.90
15916;DHT22;8057;47.830;-3.870;2023-09-07T09:47:42;24.20;99.90
15916;DHT22;8057;47.830;-3.870;2023-09-07T09:51:53;24.20;99.90
15916;DHT22;8057;47.830;-3.870;2023-09-07T09:56:02;24.20;99.90
15916;DHT22;8057;47.830;-3.870;2023-09-07T10:00:12;24.40;99.90
15916;DHT22;8057;47.830;-3.870;2023-09-07T10:04:33;24.60;99.90
15916;DHT22;8057;47.830;-3.870;2023-09-07T10:08:53;24.90;99.90
15916;DHT22;8057;47.830;-3.870;2023-09-07T10:13:03;24.90;99.90
15916;DHT22;8057;47.830;-3.870;2023-09-07T10:17:22;24.80;99.90
15916;DHT22;8057;47.830;-3.870;2023-09-07T10:21:40;24.70;99.90
15916;DHT22;8057;47.830;-3.870;2023-09-07T10:25:52;24.60;99.90
15916;DHT22;8057;47.830;-3.870;2023-09-07T10:30:09;24.40;99.90
15916;DHT22;8057;47.830;-3.870;2023-09-07T10:34:20;24.30;99.90
15916;DHT22;8057;47.830;-3.870;2023-09-07T10:38:31;24.30;99.90
15916;DHT22;8057;47.830;-3.870;2023-09-07T10:42:42;24.40;99.90
15916;DHT22;8057;47.830;-3.870;2023-09-07T10:46:51;24.40;99.90
15916;DHT22;8057;47.830;-3.870;2023-09-07T10:51:01;24.50;99.90
15916;DHT22;8057;47.830;-3.870;2023-09-07T10:55:11;24.50;99.90
15916;DHT22;8057;47.830;-3.870;2023-09-07T10:59:22;24.60;99.90
15916;DHT22;8057;47.830;-3.870;2023-09-07T11:03:31;24.90;99.90
15916;DHT22;8057;47.830;-3.870;2023-09-07T11:07:43;25.20;99.90
15916;DHT22;8057;47.830;-3.870;2023-09-07T11:12:04;25.50;99.90
15916;DHT22;8057;47.830;-3.870;2023-09-07T11:16:18;26.00;99.90
15916;DHT22;8057;47.830;-3.870;2023-09-07T11:20:28;26.10;99.90
15916;DHT22;8057;47.830;-3.870;2023-09-07T11:24:40;26.50;99.90
15916;DHT22;8057;47.830;-3.870;2023-09-07T11:29:04;26.90;99.90
15916;DHT22;8057;47.830;-3.870;2023-09-07T11:33:23;26.90;99.90
15916;DHT22;8057;47.830;-3.870;2023-09-07T11:37:33;26.90;99.90
15916;DHT22;8057;47.830;-3.870;2023-09-07T11:41:44;26.90;99.90
15916;DHT22;8057;47.830;-3.870;2023-09-07T11:45:54;27.10;99.90
15916;DHT22;8057;47.830;-3.870;2023-09-07T11:50:26;27.40;99.90
15916;DHT22;8057;47.830;-3.870;2023-09-07T11:54:40;27.40;99.90
15916;DHT22;8057;47.830;-3.870;2023-09-07T11:58:59;27.40;99.90
15916;DHT22;8057;47.830;-3.870;2023-09-07T12:03:18;27.40;99.90
15916;DHT22;8057;47.830;-3.870;2023-09-07T12:07:29;27.50;99.90
15916;DHT22;8057;47.830;-3.870;2023-09-07T12:11:46;27.50;99.90
15916;DHT22;8057;47.830;-3.870;2023-09-07T12:16:01;27.50;99.90
15916;DHT22;8057;47.830;-3.870;2023-09-07T12:20:14;27.70;99.90
15916;DHT22;8057;47.830;-3.870;2023-09-07T12:24:35;27.90;99.90
15916;DHT22;8057;47.830;-3.870;2023-09-07T12:28:49;28.10;99.90
15916;DHT22;8057;47.830;-3.870;2023-09-07T12:32:59;28.10;99.90
15916;DHT22;8057;47.830;-3.870;2023-09-07T12:37:14;28.00;99.90
15916;DHT22;8057;47.830;-3.870;2023-09-07T12:41:33;28.10;99.90
15916;DHT22;8057;47.830;-3.870;2023-09-07T12:45:44;27.90;99.90
15916;DHT22;8057;47.830;-3.870;2023-09-07T12:50:08;27.80;99.90
15916;DHT22;8057;47.830;-3.870;2023-09-07T12:59:46;27.60;99.90
15916;DHT22;8057;47.830;-3.870;2023-09-07T13:04:20;27.40;99.90
15916;DHT22;8057;47.830;-3.870;2023-09-07T13:08:59;27.50;99.90
15916;DHT22;8057;47.830;-3.870;2023-09-07T13:13:10;27.60;99.90
15916;DHT22;8057;47.830;-3.870;2023-09-07T13:17:22;27.60;99.90
15916;DHT22;8057;47.830;-3.870;2023-09-07T13:21:33;27.50;99.90
15916;DHT22;8057;47.830;-3.870;2023-09-07T13:25:42;27.30;99.90
15916;DHT22;8057;47.830;-3.870;2023-09-07T13:29:56;27.00;99.90
15916;DHT22;8057;47.830;-3.870;2023-09-07T13:34:08;27.00;99.90
15916;DHT22;8057;47.830;-3.870;2023-09-07T13:38:18;26.90;99.90
15916;DHT22;8057;47.830;-3.870;2023-09-07T13:42:29;26.90;99.90
15916;DHT22;8057;47.830;-3.870;2023-09-07T13:46:39;27.00;99.90
15916;DHT22;8057;47.830;-3.870;2023-09-07T13:50:50;26.80;99.90
15916;DHT22;8057;47.830;-3.870;2023-09-07T13:55:03;26.70;99.90
15916;DHT22;8057;47.830;-3.870;2023-09-07T13:59:16;26.60;99.90
15916;DHT22;8057;47.830;-3.870;2023-09-07T14:03:26;26.50;99.90
15916;DHT22;8057;47.830;-3.870;2023-09-07T14:07:41;26.20;99.90
15916;DHT22;8057;47.830;-3.870;2023-09-07T14:11:53;26.30;99.90
15916;DHT22;8057;47.830;-3.870;2023-09-07T14:16:04;26.60;99.90
15916;DHT22;8057;47.830;-3.870;2023-09-07T14:20:13;26.70;99.90
15916;DHT22;8057;47.830;-3.870;2023-09-07T14:24:24;27.00;99.90
15916;DHT22;8057;47.830;-3.870;2023-09-07T14:28:38;27.00;99.90
15916;DHT22;8057;47.830;-3.870;2023-09-07T14:33:09;27.10;99.90
15916;DHT22;8057;47.830;-3.870;2023-09-07T14:37:24;27.00;99.90
15916;DHT22;8057;47.830;-3.870;2023-09-07T14:41:38;27.00;99.90
15916;DHT22;8057;47.830;-3.870;2023-09-07T14:45:51;26.90;99.90
15916;DHT22;8057;47.830;-3.870;2023-09-07T14:50:00;26.80;99.90
15916;DHT22;8057;47.830;-3.870;2023-09-07T14:54:25;26.70;99.90
15916;DHT22;8057;47.830;-3.870;2023-09-07T14:58:39;26.50;99.90
15916;DHT22;8057;47.830;-3.870;2023-09-07T15:03:00;26.40;99.90
15916;DHT22;8057;47.830;-3.870;2023-09-07T15:07:10;26.20;99.90
15916;DHT22;8057;47.830;-3.870;2023-09-07T15:11:21;26.00;99.90
15916;DHT22;8057;47.830;-3.870;2023-09-07T15:15:36;25.90;99.90
15916;DHT22;8057;47.830;-3.870;2023-09-07T15:19:51;26.10;99.90
15916;DHT22;8057;47.830;-3.870;2023-09-07T15:24:07;26.10;99.90
15916;DHT22;8057;47.830;-3.870;2023-09-07T15:52:46;26.10;99.90
15916;DHT22;8057;47.830;-3.870;2023-09-07T16:27:46;25.90;99.90
15916;DHT22;8057;47.830;-3.870;2023-09-07T16:33:24;26.00;99.90
15916;DHT22;8057;47.830;-3.870;2023-09-07T17:01:13;25.70;99.90
15916;DHT22;8057;47.830;-3.870;2023-09-07T17:05:28;25.50;99.90
15916;DHT22;8057;47.830;-3.870;2023-09-07T17:09:45;25.40;99.90
15916;DHT22;8057;47.830;-3.870;2023-09-07T17:14:05;25.30;99.90
15916;DHT22;8057;47.830;-3.870;2023-09-07T17:18:33;25.10;99.90
15916;DHT22;8057;47.830;-3.870;2023-09-07T17:22:49;25.00;99.90
15916;DHT22;8057;47.830;-3.870;2023-09-07T17:27:05;24.90;99.90
15916;DHT22;8057;47.830;-3.870;2023-09-07T17:31:23;24.80;99.90
15916;DHT22;8057;47.830;-3.870;2023-09-07T17:35:45;24.80;99.90
15916;DHT22;8057;47.830;-3.870;2023-09-07T17:40:09;24.80;99.90
15916;DHT22;8057;47.830;-3.870;2023-09-07T17:44:37;24.60;99.90
15916;DHT22;8057;47.830;-3.870;2023-09-07T17:48:54;24.50;99.90
15916;DHT22;8057;47.830;-3.870;2023-09-07T17:53:26;24.50;99.90
15916;DHT22;8057;47.830;-3.870;2023-09-07T17:57:40;24.30;99.90
15916;DHT22;8057;47.830;-3.870;2023-09-07T18:01:58;24.20;99.90
15916;DHT22;8057;47.830;-3.870;2023-09-07T18:06:14;24.00;99.90
15916;DHT22;8057;47.830;-3.870;2023-09-07T18:10:31;23.90;99.90
15916;DHT22;8057;47.830;-3.870;2023-09-07T18:14:44;23.70;99.90
15916;DHT22;8057;47.830;-3.870;2023-09-07T18:18:59;23.50;99.90
15916;DHT22;8057;47.830;-3.870;2023-09-07T18:23:15;23.30;99.90
15916;DHT22;8057;47.830;-3.870;2023-09-07T18:27:32;23.20;99.90
15916;DHT22;8057;47.830;-3.870;2023-09-07T18:31:48;23.10;99.90
15916;DHT22;8057;47.830;-3.870;2023-09-07T18:36:04;22.90;99.90
15916;DHT22;8057;47.830;-3.870;2023-09-07T18:40:21;22.90;99.90
15916;DHT22;8057;47.830;-3.870;2023-09-07T18:44:37;22.80;99.90
15916;DHT22;8057;47.830;-3.870;2023-09-07T18:48:51;22.60;99.90
15916;DHT22;8057;47.830;-3.870;2023-09-07T18:53:05;22.50;99.90
15916;DHT22;8057;47.830;-3.870;2023-09-07T18:57:24;22.40;99.90
15916;DHT22;8057;47.830;-3.870;2023-09-07T19:01:41;22.30;99.90
15916;DHT22;8057;47.830;-3.870;2023-09-07T19:05:53;22.30;99.90
15916;DHT22;8057;47.830;-3.870;2023-09-07T19:10:07;22.20;99.90
15916;DHT22;8057;47.830;-3.870;2023-09-07T20:46:15;21.00;99.90
15916;DHT22;8057;47.830;-3.870;2023-09-07T20:50:32;20.90;99.90
15916;DHT22;8057;47.830;-3.870;2023-09-07T20:54:46;20.70;99.90
15916;DHT22;8057;47.830;-3.870;2023-09-07T20:59:05;20.60;99.90
15916;DHT22;8057;47.830;-3.870;2023-09-07T21:03:33;20.60;99.90
15916;DHT22;8057;47.830;-3.870;2023-09-07T21:07:58;20.60;99.90
15916;DHT22;8057;47.830;-3.870;2023-09-07T21:12:48;20.60;99.90
15916;DHT22;8057;47.830;-3.870;2023-09-07T21:22:25;20.70;99.90
15916;DHT22;8057;47.830;-3.870;2023-09-07T21:26:58;20.70;99.90
15916;DHT22;8057;47.830;-3.870;2023-09-07T21:37:35;20.90;99.90
15916;DHT22;8057;47.830;-3.870;2023-09-07T21:42:46;20.90;99.90
15916;DHT22;8057;47.830;-3.870;2023-09-07T21:47:50;20.80;99.90
15916;DHT22;8057;47.830;-3.870;2023-09-07T21:58:14;20.80;99.90
15916;DHT22;8057;47.830;-3.870;2023-09-07T22:02:42;20.80;99.90
15916;DHT22;8057;47.830;-3.870;2023-09-07T22:07:19;20.70;99.90
15916;DHT22;8057;47.830;-3.870;2023-09-07T22:12:47;20.70;99.90
15916;DHT22;8057;47.830;-3.870;2023-09-07T22:17:26;20.70;99.90
15916;DHT22;8057;47.830;-3.870;2023-09-07T22:22:47;20.70;99.90
15916;DHT22;8057;47.830;-3.870;2023-09-07T22:49:17;20.60;99.90
15916;DHT22;8057;47.830;-3.870;2023-09-07T22:53:39;20.60;99.90
15916;DHT22;8057;47.830;-3.870;2023-09-07T22:57:59;20.60;99.90
15916;DHT22;8057;47.830;-3.870;2023-09-07T23:02:42;20.60;99.90
15916;DHT22;8057;47.830;-3.870;2023-09-07T23:07:29;20.60;99.90
15916;DHT22;8057;47.830;-3.870;2023-09-07T23:11:59;20.70;99.90
15916;DHT22;8057;47.830;-3.870;2023-09-07T23:16:51;20.70;99.90
15916;DHT22;8057;47.830;-3.870;2023-09-07T23:21:20;20.70;99.90
15916;DHT22;8057;47.830;-3.870;2023-09-07T23:26:06;20.70;99.90
15916;DHT22;8057;47.830;-3.870;2023-09-07T23:30:41;20.70;99.90
15916;DHT22;8057;47.830;-3.870;2023-09-07T23:35:38;20.60;99.90
15916;DHT22;8057;47.830;-3.870;2023-09-07T23:40:53;20.60;99.90
15916;DHT22;8057;47.830;-3.870;2023-09-07T23:45:33;20.80;99.90
15916;DHT22;8057;47.830;-3.870;2023-09-07T23:50:28;20.70;99.90
15916;DHT22;8057;47.830;-3.870;2023-09-07T23:54:44;20.80;99.90
15916;DHT22;8057;47.830;-3.870;2023-09-07T23:59:08;20.80;99.90
